CFB Gagetown, New Brunswick

Past 24 Hour Conditions

Date / Time
(ADT)
Conditions Temp
(°F)
Humidity
(%)
Dew Point
(°F)
Wind
(mph)
Pressure
(inches)
Visibility
(miles)
31 October 2014
3:00 Cloudy 39   94 37 calm 30.0 15
2:00 Cloudy 39   89 36 calm 30.0 15
1:00 Mostly Cloudy 42 72 33 calm 29.9 15
00:00 Cloudy 44 63 32 N 2 29.9 15
30 October 2014
23:00 Cloudy 44 71 36 NNW 5 29.9 15
22:00 Cloudy 46 73 37 N 5 29.9 15
21:00 Cloudy 46 73 38 NW 5 29.9 15
20:00 Cloudy 45 81 40 calm 29.9 15
19:00 Mostly Cloudy 48 68 37 W 5 29.9 15
18:00 Partly Cloudy 48 65 37 W 3 29.9 15
17:00 Mostly Cloudy 51 58 37 W 3 29.9 15
16:00 Partly Cloudy 50 57 35 W 7 29.8 15
15:00 Partly Cloudy 53   56 37 WNW 9 29.8 15
14:00 Partly Cloudy 50 60 37 WNW 10 29.8 15
13:00 Partly Cloudy 50 68 40 W 11 29.8 15
12:00 Partly Cloudy 50 71 41 NW 9 29.8 15
11:00 Mainly Sunny 48 80 42 W 8 29.8 15
10:00 Mainly Sunny 46 86 42 SW 7 29.8 15
9:00 Mainly Sunny 42 95 41 SW 7 29.8 15
8:00 Mainly Clear 42 97 41 SW 8 29.8 15
7:00 Mainly Clear 43 97 42 SSW 6 29.8 15
6:00 Clear 44 95 43 SW 7 29.7 15
5:00 Clear 47 90 44 SW 8 29.7 15
4:00 Cloudy 49 89 46 W 7 29.7 15
3:00 Cloudy 50 89 46 W 8 29.7 15
N/A Not available
↑ Highest temperature
↓ Lowest temperature

If you require additional historical weather information, please visit Climate Data Online.

Date modified: